Thomson Spirit — 9HA2336 — position and weather

sailwx.info

Track history (hours):
 
Tides and Currents Weather Stations Pressure Air Temp Water Temp Dewpoint Dewpoint Depression Visibility Wind Speed Wind Dir Waves Ship Positions

Thomson Spirit

Last reported at 2015-May-22 21:29 UTC. Time now 2015-May-22 22:10 UTC.
Position N 37°32' E 024°55'.

Length 214 m; draft 7.8 m.

Type: Passenger vessel. MMSI: 248368000.

Date/timePositionNaut miles runAvg speedWind from/ knotsBaromVisibWave heightAir tempDewpointWater temp
2015-May-22 21:29N 37°32' E 024°55'1415.6
2015-May-22 20:34N 37°31' E 025°13'1615.6
2015-May-22 19:34N 37°34' E 025°32'1615.4
2015-May-22 18:33N 37°39' E 025°52'1615.4
2015-May-22 17:30N 37°42' E 026°11'  
2015-May-19 08:32N 38°03' E 026°01'2713.6
2015-May-19 06:33N 37°45' E 026°27'2813.7
2015-May-19 04:32N 37°23' E 026°48'1813.7
2015-May-19 03:14N 37°08' E 026°59'1613.7
2015-May-19 02:03N 36°57' E 027°14'2711.0
2015-May-18 23:33N 36°35' E 027°35'1414.2
2015-May-18 22:33N 36°29' E 027°51'20 0.7
2015-May-17 16:32N 36°31' E 028°16'235 5.3
2015-May-15 20:33N 34°39' E 032°30'1413.9
2015-May-15 19:34N 34°34' E 032°46'1313.3
2015-May-15 18:34N 34°32' E 033°02'1313.4
2015-May-15 17:34N 34°37' E 033°17'1313.4
2015-May-15 16:33N 34°43' E 033°32'1411.8
2015-May-15 15:22N 34°55' E 033°40'1 1.7
2015-May-15 14:34N 34°56' E 033°39'0 0.0
2015-May-15 13:34N 34°56' E 033°39'0 0.0
2015-May-15 12:34N 34°56' E 033°39'0 0.0
2015-May-15 11:32N 34°56' E 033°39'0 0.0
2015-May-15 10:34N 34°56' E 033°39'8 2.5
2015-May-15 07:27N 34°49' E 033°43'1314.1
2015-May-15 06:30N 34°36' E 033°47'1314.1
2015-May-15 05:34N 34°23' E 033°50'1414.1
2015-May-15 04:33N 34°09' E 033°53'1313.3
2015-May-15 03:34N 33°56' E 033°57'1111.4
2015-May-15 02:34N 33°45' E 033°59'1111.3
2015-May-15 01:34N 33°34' E 034°02'82 1.6
2015-May-12 22:26N 32°14' E 033°40'  
Track history (hours):
 
Tides and Currents Weather Stations Pressure Air Temp Water Temp Dewpoint Dewpoint Depression Visibility Wind Speed Wind Dir Waves Ship Positions

Thomson Spirit

Last reported at 2015-May-22 21:29 UTC. Time now 2015-May-22 22:10 UTC.
Position N 37°32' E 024°55'.

Length 214 m; draft 7.8 m.

Type: Passenger vessel. MMSI: 248368000.

Date/timePositionNaut miles runAvg speedWind from/ knotsBaromVisibWave heightAir tempDewpointWater temp
2015-May-22 21:29N 37°32' E 024°55'1415.6
2015-May-22 20:34N 37°31' E 025°13'1615.6
2015-May-22 19:34N 37°34' E 025°32'1615.4
2015-May-22 18:33N 37°39' E 025°52'1615.4
2015-May-22 17:30N 37°42' E 026°11'  
2015-May-19 08:32N 38°03' E 026°01'2713.6
2015-May-19 06:33N 37°45' E 026°27'2813.7
2015-May-19 04:32N 37°23' E 026°48'1813.7
2015-May-19 03:14N 37°08' E 026°59'1613.7
2015-May-19 02:03N 36°57' E 027°14'2711.0
2015-May-18 23:33N 36°35' E 027°35'1414.2
2015-May-18 22:33N 36°29' E 027°51'20 0.7
2015-May-17 16:32N 36°31' E 028°16'235 5.3
2015-May-15 20:33N 34°39' E 032°30'1413.9
2015-May-15 19:34N 34°34' E 032°46'1313.3
2015-May-15 18:34N 34°32' E 033°02'1313.4
2015-May-15 17:34N 34°37' E 033°17'1313.4
2015-May-15 16:33N 34°43' E 033°32'1411.8
2015-May-15 15:22N 34°55' E 033°40'1 1.7
2015-May-15 14:34N 34°56' E 033°39'0 0.0
2015-May-15 13:34N 34°56' E 033°39'0 0.0
2015-May-15 12:34N 34°56' E 033°39'0 0.0
2015-May-15 11:32N 34°56' E 033°39'0 0.0
2015-May-15 10:34N 34°56' E 033°39'8 2.5
2015-May-15 07:27N 34°49' E 033°43'1314.1
2015-May-15 06:30N 34°36' E 033°47'1314.1
2015-May-15 05:34N 34°23' E 033°50'1414.1
2015-May-15 04:33N 34°09' E 033°53'1313.3
2015-May-15 03:34N 33°56' E 033°57'1111.4
2015-May-15 02:34N 33°45' E 033°59'1111.3
2015-May-15 01:34N 33°34' E 034°02'82 1.6
2015-May-12 22:26N 32°14' E 033°40'  

Dump ship's entire track history